Time;durP1;ratioP1;P1;durP2;ratioP2;P2;SDS_P1;SDS_P2;PMS_P1;PMS_P2;Temp;Humidity;BMP_temperature;BMP_pressure;BME280_temperature;BME280_humidity;BME280_pressure;Samples;Min_cycle;Max_cycle;Signal;HPM_P1;HPM_P2
2022/12/09 00:01:34;;;;;;;49.92;21.45;;;;;;;;;;5100757;28;20020;-76
2022/12/09 00:04:19;;;;;;;57.10;22.13;;;;;;;;;;5114879;28;20032;-76
2022/12/09 00:07:05;;;;;;;59.30;23.33;;;;;;;;;;5114601;28;20025;-77
2022/12/09 00:09:50;;;;;;;64.88;25.02;;;;;;;;;;5114282;28;20020;-77
2022/12/09 00:12:36;;;;;;;63.25;24.60;;;;;;;;;;5114278;28;20434;-76
2022/12/09 00:15:22;;;;;;;62.08;24.75;;;;;;;;;;5114609;28;20034;-77
2022/12/09 00:18:08;;;;;;;59.22;24.30;;;;;;;;;;5099739;28;20082;-78
2022/12/09 00:20:53;;;;;;;55.97;24.88;;;;;;;;;;5100021;28;20449;-77
2022/12/09 00:23:39;;;;;;;68.70;27.00;;;;;;;;;;5114333;28;20031;-79
2022/12/09 00:26:26;;;;;;;67.63;26.50;;;;;;;;;;5099328;28;20026;-77
2022/12/09 00:29:11;;;;;;;60.53;25.48;;;;;;;;;;5099721;28;20072;-77
2022/12/09 00:31:57;;;;;;;62.42;25.52;;;;;;;;;;5100084;28;20020;-78
2022/12/09 00:34:43;;;;;;;64.03;25.92;;;;;;;;;;5114531;28;20024;-77
2022/12/09 00:37:28;;;;;;;65.43;25.58;;;;;;;;;;5114045;28;20052;-77
2022/12/09 00:40:14;;;;;;;68.07;26.13;;;;;;;;;;5114163;28;20026;-76
2022/12/09 00:42:59;;;;;;;73.18;25.67;;;;;;;;;;5114412;28;20019;-77
2022/12/09 00:45:45;;;;;;;69.82;27.13;;;;;;;;;;5113798;28;20027;-77
2022/12/09 00:48:33;;;;;;;79.25;27.17;;;;;;;;;;5114526;28;20500;-77
2022/12/09 00:51:20;;;;;;;68.15;25.55;;;;;;;;;;5114505;28;20406;-77
2022/12/09 00:54:05;;;;;;;62.47;24.23;;;;;;;;;;5115183;28;20340;-77
2022/12/09 00:56:51;;;;;;;63.90;25.50;;;;;;;;;;5100084;28;20027;-77
2022/12/09 00:59:36;;;;;;;61.80;24.95;;;;;;;;;;5099418;28;20031;-78
2022/12/09 01:02:22;;;;;;;66.85;25.95;;;;;;;;;;5099242;28;20015;-77
2022/12/09 01:05:08;;;;;;;62.45;25.10;;;;;;;;;;5114199;28;20081;-76
2022/12/09 01:07:53;;;;;;;68.65;25.13;;;;;;;;;;5085223;28;20304;-77
2022/12/09 01:10:40;;;;;;;68.03;24.63;;;;;;;;;;5100513;28;20070;-77
2022/12/09 01:13:25;;;;;;;62.05;23.98;;;;;;;;;;5114195;28;20438;-77
2022/12/09 01:16:14;;;;;;;60.80;23.55;;;;;;;;;;5114150;28;20028;-77
2022/12/09 01:19:02;;;;;;;66.07;24.40;;;;;;;;;;5113874;28;20023;-77
2022/12/09 01:21:47;;;;;;;52.30;22.73;;;;;;;;;;5099547;28;20541;-77
2022/12/09 01:24:33;;;;;;;56.88;23.08;;;;;;;;;;5114931;28;20035;-78
2022/12/09 01:27:19;;;;;;;52.42;21.70;;;;;;;;;;5113495;28;20023;-77
2022/12/09 01:30:05;;;;;;;45.90;20.45;;;;;;;;;;5125358;28;20026;-77
2022/12/09 01:32:51;;;;;;;44.42;18.83;;;;;;;;;;5105360;28;20016;-76
2022/12/09 01:35:38;;;;;;;47.58;19.58;;;;;;;;;;5101331;28;20431;-76
2022/12/09 01:38:24;;;;;;;43.35;19.77;;;;;;;;;;5099922;28;20063;-77
2022/12/09 01:41:10;;;;;;;42.25;19.42;;;;;;;;;;5108691;28;20050;-78
2022/12/09 01:44:13;;;;;;;47.45;20.23;;;;;;;;;;5094639;28;20034;-77
2022/12/09 01:47:00;;;;;;;44.15;19.05;;;;;;;;;;5097513;28;20020;-77
2022/12/09 01:49:46;;;;;;;42.13;19.90;;;;;;;;;;5098157;28;20040;-77
2022/12/09 01:52:32;;;;;;;37.13;17.70;;;;;;;;;;5082016;28;20020;-79
2022/12/09 01:55:18;;;;;;;40.97;17.95;;;;;;;;;;5098035;28;20032;-78
2022/12/09 01:58:04;;;;;;;43.13;19.13;;;;;;;;;;5097298;28;20376;-78
2022/12/09 02:00:49;;;;;;;39.85;18.17;;;;;;;;;;5068597;28;20107;-78
2022/12/09 02:03:35;;;;;;;43.00;18.85;;;;;;;;;;5096611;28;20031;-78
2022/12/09 02:06:20;;;;;;;37.78;17.67;;;;;;;;;;5083335;28;20083;-78
2022/12/09 02:09:06;;;;;;;36.47;17.95;;;;;;;;;;5096721;28;20016;-78
2022/12/09 02:12:10;;;;;;;35.55;16.75;;;;;;;;;;5096714;28;20026;-77
2022/12/09 02:14:59;;;;;;;34.95;17.27;;;;;;;;;;5097157;28;20016;-77
2022/12/09 02:17:51;;;;;;;36.08;16.92;;;;;;;;;;5082378;28;20320;-77
2022/12/09 02:20:45;;;;;;;33.33;16.90;;;;;;;;;;5096682;28;20317;-77
2022/12/09 02:23:54;;;;;;;34.10;16.83;;;;;;;;;;5096352;28;20024;-78
2022/12/09 02:26:44;;;;;;;34.00;16.20;;;;;;;;;;5082613;28;20042;-78
2022/12/09 02:29:49;;;;;;;42.83;17.88;;;;;;;;;;5096524;28;20016;-79
2022/12/09 02:32:34;;;;;;;34.50;16.75;;;;;;;;;;5097210;28;20028;-78
2022/12/09 02:35:29;;;;;;;35.67;16.50;;;;;;;;;;5096399;28;20446;-76
2022/12/09 02:38:27;;;;;;;35.92;17.52;;;;;;;;;;5114545;28;20100;-77
2022/12/09 02:41:15;;;;;;;34.17;16.83;;;;;;;;;;5102183;28;20406;-77
2022/12/09 02:44:06;;;;;;;36.10;18.15;;;;;;;;;;5101056;28;20098;-78
2022/12/09 02:46:52;;;;;;;33.30;16.90;;;;;;;;;;5101720;28;20349;-78
2022/12/09 02:49:39;;;;;;;33.80;17.05;;;;;;;;;;5117187;28;20098;-78
2022/12/09 02:52:25;;;;;;;35.45;17.23;;;;;;;;;;5101342;28;20019;-77
2022/12/09 02:55:13;;;;;;;37.55;16.00;;;;;;;;;;5100482;28;20436;-78
2022/12/09 02:57:59;;;;;;;36.03;17.25;;;;;;;;;;5117448;27;20059;-78
2022/12/09 03:00:45;;;;;;;41.17;19.05;;;;;;;;;;5101501;28;20030;-78
2022/12/09 03:03:32;;;;;;;45.53;18.23;;;;;;;;;;5116125;28;20035;-78
2022/12/09 03:06:18;;;;;;;42.08;19.02;;;;;;;;;;5101148;28;20103;-78
2022/12/09 03:09:13;;;;;;;49.00;19.95;;;;;;;;;;5101337;28;20439;-79
2022/12/09 03:12:00;;;;;;;39.00;18.40;;;;;;;;;;5115741;28;20080;-78
2022/12/09 03:14:50;;;;;;;33.42;16.63;;;;;;;;;;5115922;28;20016;-79
2022/12/09 03:17:36;;;;;;;32.90;15.70;;;;;;;;;;5115502;28;20011;-78
2022/12/09 03:20:25;;;;;;;35.17;16.77;;;;;;;;;;5114167;28;20111;-78
2022/12/09 03:23:13;;;;;;;36.42;17.30;;;;;;;;;;5100985;28;20364;-79
2022/12/09 03:25:58;;;;;;;37.47;17.25;;;;;;;;;;5115907;28;20034;-79
2022/12/09 03:28:47;;;;;;;36.83;17.67;;;;;;;;;;5116509;28;20044;-78
2022/12/09 03:31:34;;;;;;;37.38;17.98;;;;;;;;;;5116377;28;20399;-77
2022/12/09 03:34:23;;;;;;;36.88;17.50;;;;;;;;;;5100307;28;20088;-78
2022/12/09 03:37:09;;;;;;;33.50;17.10;;;;;;;;;;5114790;28;20075;-78
2022/12/09 03:39:55;;;;;;;34.65;16.45;;;;;;;;;;5086403;28;20440;-78
2022/12/09 03:43:04;;;;;;;35.22;17.05;;;;;;;;;;5100204;28;20460;-78
2022/12/09 03:45:53;;;;;;;36.58;17.15;;;;;;;;;;5114507;28;20100;-78
2022/12/09 03:48:39;;;;;;;36.90;17.83;;;;;;;;;;5100143;28;20084;-77
2022/12/09 03:51:30;;;;;;;38.40;18.75;;;;;;;;;;5115162;28;20073;-79
2022/12/09 03:54:19;;;;;;;37.72;16.88;;;;;;;;;;5115294;28;20111;-77
2022/12/09 03:57:05;;;;;;;35.65;16.95;;;;;;;;;;5100531;28;20452;-78
2022/12/09 03:59:52;;;;;;;39.67;17.70;;;;;;;;;;5114843;28;20034;-77
2022/12/09 04:02:39;;;;;;;33.53;16.05;;;;;;;;;;5116267;28;20015;-77
2022/12/09 04:05:24;;;;;;;36.33;16.92;;;;;;;;;;5115462;28;20027;-77
2022/12/09 04:08:10;;;;;;;36.33;16.50;;;;;;;;;;5115232;28;20016;-78
2022/12/09 04:10:55;;;;;;;36.15;16.98;;;;;;;;;;5109112;28;20024;-77
2022/12/09 04:13:41;;;;;;;36.97;17.58;;;;;;;;;;5115446;28;20012;-78
2022/12/09 04:16:26;;;;;;;32.00;16.90;;;;;;;;;;5115452;28;20354;-78
2022/12/09 04:19:12;;;;;;;36.42;16.90;;;;;;;;;;5115412;28;20034;-78
2022/12/09 04:21:58;;;;;;;37.22;17.45;;;;;;;;;;5099642;28;20027;-78
2022/12/09 04:24:43;;;;;;;31.63;15.75;;;;;;;;;;5100749;28;20035;-77
2022/12/09 04:27:29;;;;;;;32.53;15.18;;;;;;;;;;5114478;28;20065;-77
2022/12/09 04:30:14;;;;;;;32.53;15.45;;;;;;;;;;5099574;28;20031;-78
2022/12/09 04:33:00;;;;;;;39.60;16.77;;;;;;;;;;5114946;28;20020;-77
2022/12/09 04:35:46;;;;;;;35.60;17.08;;;;;;;;;;5114542;28;20103;-78
2022/12/09 04:38:31;;;;;;;42.30;16.95;;;;;;;;;;5099713;28;20051;-77
2022/12/09 04:41:17;;;;;;;37.95;16.75;;;;;;;;;;5115281;28;20351;-76
2022/12/09 04:44:03;;;;;;;46.88;19.45;;;;;;;;;;5114554;28;20019;-77
2022/12/09 04:46:48;;;;;;;40.92;18.75;;;;;;;;;;5113979;28;20026;-76
2022/12/09 04:49:34;;;;;;;46.28;19.75;;;;;;;;;;5115283;28;20020;-77
2022/12/09 04:52:19;;;;;;;44.92;18.70;;;;;;;;;;5099324;28;20333;-76
2022/12/09 04:55:05;;;;;;;39.17;17.63;;;;;;;;;;5115246;28;20042;-77
2022/12/09 04:57:51;;;;;;;44.20;19.25;;;;;;;;;;5114272;28;20062;-77
2022/12/09 05:00:37;;;;;;;39.60;17.40;;;;;;;;;;5114897;28;20024;-77
2022/12/09 05:03:22;;;;;;;37.25;17.67;;;;;;;;;;5115117;28;20125;-78
2022/12/09 05:06:13;;;;;;;40.33;18.27;;;;;;;;;;5098915;28;20020;-75
2022/12/09 05:08:58;;;;;;;42.10;18.80;;;;;;;;;;5113936;28;20023;-77
2022/12/09 05:11:44;;;;;;;39.20;17.50;;;;;;;;;;5114673;28;20015;-78
2022/12/09 05:14:29;;;;;;;37.42;17.08;;;;;;;;;;5099217;28;20020;-77
2022/12/09 05:17:15;;;;;;;40.15;17.50;;;;;;;;;;5114529;28;20412;-77
2022/12/09 05:20:01;;;;;;;37.72;17.45;;;;;;;;;;5117889;28;20329;-77
2022/12/09 05:22:46;;;;;;;41.13;17.45;;;;;;;;;;5118613;28;20020;-77
2022/12/09 05:25:32;;;;;;;38.75;17.42;;;;;;;;;;5102992;28;20047;-76
2022/12/09 05:28:17;;;;;;;40.78;16.75;;;;;;;;;;5118118;28;20492;-77
2022/12/09 05:31:09;;;;;;;38.92;16.77;;;;;;;;;;5103740;28;20463;-78
2022/12/09 05:33:55;;;;;;;39.13;16.95;;;;;;;;;;5117864;28;20039;-75
2022/12/09 05:36:41;;;;;;;30.80;15.30;;;;;;;;;;5101785;28;20073;-78
2022/12/09 05:39:26;;;;;;;36.40;14.95;;;;;;;;;;5118101;28;20355;-76
2022/12/09 05:42:12;;;;;;;35.88;15.65;;;;;;;;;;5118579;28;20015;-78
2022/12/09 05:44:58;;;;;;;32.75;15.27;;;;;;;;;;5118613;28;20027;-78
2022/12/09 05:47:44;;;;;;;33.80;14.93;;;;;;;;;;5102994;28;20043;-78
2022/12/09 05:50:30;;;;;;;32.15;15.15;;;;;;;;;;5117608;28;20038;-77
2022/12/09 05:53:15;;;;;;;44.55;16.85;;;;;;;;;;5102738;28;20318;-77
2022/12/09 05:56:01;;;;;;;47.38;19.20;;;;;;;;;;5117143;28;20117;-77
2022/12/09 05:58:47;;;;;;;42.70;18.90;;;;;;;;;;5102147;28;20034;-77
2022/12/09 06:01:33;;;;;;;34.47;14.90;;;;;;;;;;5116719;28;20087;-78
2022/12/09 06:04:18;;;;;;;37.65;15.93;;;;;;;;;;5117819;28;20023;-78
2022/12/09 06:07:04;;;;;;;43.55;16.40;;;;;;;;;;5117341;28;20099;-77
2022/12/09 06:09:50;;;;;;;33.45;14.93;;;;;;;;;;5117412;28;20012;-78
2022/12/09 06:12:35;;;;;;;36.80;15.40;;;;;;;;;;5119308;28;20096;-77
2022/12/09 06:15:21;;;;;;;38.00;15.38;;;;;;;;;;5118569;28;20016;-78
2022/12/09 06:18:06;;;;;;;42.95;17.23;;;;;;;;;;5129251;28;20328;-77
2022/12/09 06:20:52;;;;;;;38.53;15.88;;;;;;;;;;5130807;28;20057;-78
2022/12/09 06:23:42;;;;;;;38.58;16.23;;;;;;;;;;5103133;28;20024;-78
2022/12/09 06:26:28;;;;;;;42.47;16.90;;;;;;;;;;5102040;28;20076;-77
2022/12/09 06:29:14;;;;;;;40.00;16.27;;;;;;;;;;5117586;28;20007;-78
2022/12/09 06:31:59;;;;;;;42.47;18.33;;;;;;;;;;5120285;28;20340;-77
2022/12/09 06:34:45;;;;;;;40.60;15.82;;;;;;;;;;5108219;28;20019;-76
2022/12/09 06:37:31;;;;;;;35.83;15.18;;;;;;;;;;5119807;28;20048;-74
2022/12/09 06:40:16;;;;;;;33.13;14.93;;;;;;;;;;5128717;28;20038;-75
2022/12/09 06:43:02;;;;;;;37.63;16.48;;;;;;;;;;5102397;28;20027;-75
2022/12/09 06:45:48;;;;;;;36.42;15.98;;;;;;;;;;5117177;28;20020;-75
2022/12/09 06:48:33;;;;;;;47.40;20.55;;;;;;;;;;5117162;28;20030;-76
2022/12/09 06:51:20;;;;;;;40.13;18.92;;;;;;;;;;5117222;28;20015;-75
2022/12/09 06:54:05;;;;;;;34.75;16.38;;;;;;;;;;5115992;28;20424;-75
2022/12/09 06:56:51;;;;;;;34.70;16.60;;;;;;;;;;5116230;28;20020;-75
2022/12/09 06:59:37;;;;;;;37.85;15.50;;;;;;;;;;5115731;28;20057;-75
2022/12/09 07:02:22;;;;;;;29.33;14.82;;;;;;;;;;5101872;28;20023;-75
2022/12/09 07:05:08;;;;;;;33.00;15.82;;;;;;;;;;5117014;28;20048;-74
2022/12/09 07:07:54;;;;;;;31.63;14.82;;;;;;;;;;5116663;28;20015;-75
2022/12/09 07:10:40;;;;;;;27.67;13.15;;;;;;;;;;5100211;28;20031;-74
2022/12/09 07:13:25;;;;;;;23.30;12.98;;;;;;;;;;5116659;28;20405;-75
2022/12/09 07:16:11;;;;;;;30.30;13.30;;;;;;;;;;5116959;28;20062;-74
2022/12/09 07:18:56;;;;;;;23.05;12.48;;;;;;;;;;5115805;28;20049;-75
2022/12/09 07:21:42;;;;;;;24.73;12.48;;;;;;;;;;5119143;28;20027;-74
2022/12/09 07:24:28;;;;;;;26.58;15.18;;;;;;;;;;5120924;28;20015;-74
2022/12/09 07:27:14;;;;;;;27.05;14.57;;;;;;;;;;5120807;28;20049;-74
2022/12/09 07:29:59;;;;;;;33.10;15.05;;;;;;;;;;5120791;28;20016;-74
2022/12/09 07:32:45;;;;;;;23.67;12.90;;;;;;;;;;5104484;28;20032;-74
2022/12/09 07:35:31;;;;;;;27.73;14.57;;;;;;;;;;5117783;28;20448;-74
2022/12/09 07:38:16;;;;;;;29.40;16.25;;;;;;;;;;5116667;28;20360;-75
2022/12/09 07:41:06;;;;;;;25.15;11.98;;;;;;;;;;5117702;28;20392;-73
2022/12/09 07:43:51;;;;;;;21.73;11.85;;;;;;;;;;5102862;28;20023;-74
2022/12/09 07:46:37;;;;;;;20.38;11.43;;;;;;;;;;5105957;28;20023;-74
2022/12/09 07:49:23;;;;;;;21.85;12.70;;;;;;;;;;5120816;28;20027;-75
2022/12/09 07:52:09;;;;;;;19.58;10.75;;;;;;;;;;5122482;28;20020;-75
2022/12/09 07:54:58;;;;;;;19.90;10.25;;;;;;;;;;5119648;28;20030;-75
2022/12/09 07:57:46;;;;;;;18.05;9.77;;;;;;;;;;5109094;28;20012;-78
2022/12/09 08:00:31;;;;;;;19.17;10.20;;;;;;;;;;5116668;28;20447;-75
2022/12/09 08:03:17;;;;;;;21.05;10.90;;;;;;;;;;5101590;28;20034;-75
2022/12/09 08:06:03;;;;;;;23.23;11.95;;;;;;;;;;5116043;28;20023;-74
2022/12/09 08:08:49;;;;;;;19.55;11.07;;;;;;;;;;5120871;28;20048;-79
2022/12/09 08:11:35;;;;;;;19.77;11.45;;;;;;;;;;5113536;28;20450;-78
2022/12/09 08:14:20;;;;;;;22.13;12.20;;;;;;;;;;5114623;28;20444;-76
2022/12/09 08:17:06;;;;;;;24.98;13.10;;;;;;;;;;5125303;28;20034;-79
2022/12/09 08:19:51;;;;;;;23.52;13.27;;;;;;;;;;5128237;28;20088;-77
2022/12/09 08:22:37;;;;;;;26.48;12.90;;;;;;;;;;5117630;28;20020;-74
2022/12/09 09:02:48;;;;;;;26.08;15.52;;;;;;;;;;5092983;27;20461;-78
2022/12/09 09:05:34;;;;;;;31.02;18.65;;;;;;;;;;5090911;28;20096;-76
2022/12/09 09:08:19;;;;;;;27.63;15.52;;;;;;;;;;5090180;28;20024;-75
2022/12/09 09:11:11;;;;;;;28.02;16.73;;;;;;;;;;5090257;28;20028;-76
2022/12/09 09:13:57;;;;;;;24.40;13.27;;;;;;;;;;5090598;28;20042;-75
2022/12/09 09:16:43;;;;;;;19.88;11.10;;;;;;;;;;5090248;28;20024;-76
2022/12/09 09:19:30;;;;;;;20.52;11.40;;;;;;;;;;5089820;28;20078;-75
2022/12/09 09:22:15;;;;;;;18.35;10.95;;;;;;;;;;5088861;28;20032;-76
2022/12/09 09:25:01;;;;;;;16.83;10.18;;;;;;;;;;5090340;28;20085;-76
2022/12/09 09:27:47;;;;;;;18.42;10.05;;;;;;;;;;5091088;28;20028;-76
2022/12/09 09:30:33;;;;;;;20.85;10.70;;;;;;;;;;5097474;28;20028;-78
2022/12/09 09:33:18;;;;;;;21.05;11.40;;;;;;;;;;5110945;28;20027;-77
2022/12/09 09:36:05;;;;;;;16.40;10.02;;;;;;;;;;5095160;28;20036;-76
2022/12/09 09:38:55;;;;;;;16.77;10.23;;;;;;;;;;5110546;28;20034;-76
2022/12/09 09:41:49;;;;;;;17.45;10.02;;;;;;;;;;5106773;28;20028;-76
2022/12/09 09:44:42;;;;;;;18.95;11.52;;;;;;;;;;5096223;28;20027;-76
2022/12/09 09:47:33;;;;;;;20.52;11.85;;;;;;;;;;5109884;28;20081;-78
2022/12/09 09:50:27;;;;;;;18.02;10.75;;;;;;;;;;5109393;28;20016;-76
2022/12/09 09:53:18;;;;;;;42.83;21.33;;;;;;;;;;5095743;28;20016;-76
2022/12/09 09:56:18;;;;;;;30.17;16.13;;;;;;;;;;5111587;28;20012;-76
2022/12/09 09:59:16;;;;;;;20.73;12.30;;;;;;;;;;5111197;28;20047;-75
2022/12/09 10:02:11;;;;;;;59.45;25.35;;;;;;;;;;5091122;28;20048;-76
2022/12/09 10:04:59;;;;;;;27.63;13.48;;;;;;;;;;5096341;28;20066;-76
2022/12/09 10:07:51;;;;;;;20.90;12.85;;;;;;;;;;5090982;28;20039;-75
2022/12/09 10:10:36;;;;;;;31.02;14.55;;;;;;;;;;5101314;28;20081;-76
2022/12/09 10:13:41;;;;;;;24.50;13.65;;;;;;;;;;5096481;28;20020;-76
2022/12/09 10:16:40;;;;;;;26.75;13.95;;;;;;;;;;5095402;28;20024;-76
2022/12/09 10:19:29;;;;;;;23.70;12.90;;;;;;;;;;5095381;28;20020;-77
2022/12/09 10:22:29;;;;;;;22.45;12.95;;;;;;;;;;5095459;28;20121;-78
2022/12/09 10:25:23;;;;;;;23.17;13.98;;;;;;;;;;5096262;28;20429;-79
2022/12/09 10:28:22;;;;;;;25.98;13.40;;;;;;;;;;5097237;28;20024;-76
2022/12/09 10:31:09;;;;;;;35.67;15.35;;;;;;;;;;5082141;28;20036;-78
2022/12/09 10:33:55;;;;;;;26.15;14.07;;;;;;;;;;5095663;28;20099;-75
2022/12/09 10:36:44;;;;;;;25.58;14.10;;;;;;;;;;5094740;28;20023;-75
2022/12/09 10:39:32;;;;;;;27.95;14.55;;;;;;;;;;5095506;28;20517;-75
2022/12/09 10:45:25;;;;;;;22.90;13.15;;;;;;;;;;5095075;28;20441;-76
2022/12/09 10:48:30;;;;;;;26.10;13.95;;;;;;;;;;5096117;28;20020;-75
2022/12/09 10:51:21;;;;;;;27.75;14.75;;;;;;;;;;5079715;28;20020;-74
2022/12/09 10:54:09;;;;;;;25.33;14.18;;;;;;;;;;5095151;28;20024;-76
2022/12/09 10:57:10;;;;;;;24.52;14.38;;;;;;;;;;5094209;28;20107;-75
2022/12/09 11:00:01;;;;;;;31.20;16.63;;;;;;;;;;5094199;28;20107;-75
2022/12/09 11:02:49;;;;;;;32.65;16.02;;;;;;;;;;5094831;28;20089;-74
2022/12/09 11:05:35;;;;;;;27.05;16.08;;;;;;;;;;5094769;28;20066;-75
2022/12/09 11:08:21;;;;;;;25.73;16.33;;;;;;;;;;5094802;28;20026;-76
2022/12/09 11:11:07;;;;;;;33.67;17.73;;;;;;;;;;5094386;28;20390;-74
2022/12/09 11:13:52;;;;;;;36.45;18.73;;;;;;;;;;5079600;28;20085;-74
2022/12/09 11:16:38;;;;;;;35.50;19.48;;;;;;;;;;5094088;28;20020;-76
2022/12/09 11:19:34;;;;;;;42.05;21.50;;;;;;;;;;5094400;28;20012;-75
2022/12/09 11:22:23;;;;;;;37.15;19.77;;;;;;;;;;5095016;28;20020;-73
2022/12/09 11:25:11;;;;;;;36.53;20.50;;;;;;;;;;5093838;28;20062;-74
2022/12/09 11:27:57;;;;;;;41.53;22.67;;;;;;;;;;5094484;28;20016;-75
2022/12/09 11:31:00;;;;;;;46.65;24.77;;;;;;;;;;5094096;28;20453;-74
2022/12/09 11:33:56;;;;;;;51.67;24.92;;;;;;;;;;5094127;28;20042;-74
2022/12/09 11:36:48;;;;;;;56.28;26.23;;;;;;;;;;5080304;28;20020;-74
2022/12/09 11:39:35;;;;;;;70.90;33.28;;;;;;;;;;5096297;28;20019;-74
2022/12/09 11:42:21;;;;;;;71.03;31.75;;;;;;;;;;5093940;28;20066;-74
2022/12/09 11:45:16;;;;;;;91.55;37.75;;;;;;;;;;5079514;28;20130;-73
2022/12/09 11:48:07;;;;;;;75.30;34.55;;;;;;;;;;5093115;28;20027;-73
2022/12/09 11:50:53;;;;;;;73.25;33.22;;;;;;;;;;5080370;28;20020;-74
2022/12/09 11:53:39;;;;;;;82.97;35.85;;;;;;;;;;5092249;28;20023;-74
2022/12/09 11:56:26;;;;;;;92.60;37.22;;;;;;;;;;5093625;28;20028;-73
2022/12/09 11:59:13;;;;;;;76.30;32.45;;;;;;;;;;5079109;28;20386;-73
2022/12/09 12:02:04;;;;;;;83.57;35.40;;;;;;;;;;5092953;28;20151;-73
2022/12/09 12:05:09;;;;;;;84.53;33.22;;;;;;;;;;5093253;28;20024;-74
2022/12/09 12:08:13;;;;;;;84.03;33.17;;;;;;;;;;5092576;28;20050;-74
2022/12/09 12:11:02;;;;;;;83.65;32.10;;;;;;;;;;5093690;28;20024;-74
2022/12/09 12:13:49;;;;;;;79.68;33.47;;;;;;;;;;5092481;28;20095;-74
2022/12/09 12:16:50;;;;;;;77.53;32.83;;;;;;;;;;5093416;28;20057;-74
2022/12/09 12:19:39;;;;;;;78.82;32.70;;;;;;;;;;5079207;28;20027;-76
2022/12/09 12:22:39;;;;;;;81.95;32.67;;;;;;;;;;5092431;28;20335;-76
2022/12/09 12:25:25;;;;;;;74.35;31.92;;;;;;;;;;5091787;28;20031;-76
2022/12/09 12:28:13;;;;;;;69.95;30.80;;;;;;;;;;5078667;28;20481;-75
2022/12/09 12:31:18;;;;;;;66.32;29.92;;;;;;;;;;5091869;28;20070;-74
2022/12/09 12:34:36;;;;;;;66.38;30.50;;;;;;;;;;5079103;28;20018;-74
2022/12/09 12:37:24;;;;;;;65.50;28.58;;;;;;;;;;5046515;28;20089;-74
2022/12/09 12:40:28;;;;;;;68.45;30.35;;;;;;;;;;5078771;28;20441;-74
2022/12/09 12:46:36;;;;;;;65.72;29.10;;;;;;;;;;5093364;28;20024;-75
2022/12/09 12:49:27;;;;;;;60.63;29.33;;;;;;;;;;5092961;28;20085;-75
2022/12/09 12:52:42;;;;;;;66.50;28.30;;;;;;;;;;5092499;28;20020;-74
2022/12/09 12:55:40;;;;;;;64.38;27.02;;;;;;;;;;5084446;28;20460;-74
2022/12/09 12:58:44;;;;;;;63.25;27.95;;;;;;;;;;5092328;28;20035;-72
2022/12/09 13:01:33;;;;;;;58.05;26.92;;;;;;;;;;5091669;28;20058;-74
2022/12/09 13:04:37;;;;;;;69.30;29.92;;;;;;;;;;5092406;28;20024;-73
2022/12/09 13:07:29;;;;;;;66.03;28.95;;;;;;;;;;5092685;28;20024;-74
2022/12/09 13:10:20;;;;;;;66.93;30.70;;;;;;;;;;5091972;28;20077;-74
2022/12/09 13:13:29;;;;;;;73.68;30.08;;;;;;;;;;5077854;28;20017;-75
2022/12/09 13:16:18;;;;;;;77.45;31.70;;;;;;;;;;5093144;28;20349;-75
2022/12/09 13:19:10;;;;;;;77.05;32.53;;;;;;;;;;5078387;28;20111;-74
2022/12/09 13:21:56;;;;;;;70.88;30.95;;;;;;;;;;5091728;28;20084;-72
2022/12/09 13:24:51;;;;;;;71.03;30.85;;;;;;;;;;5092883;28;20028;-73
2022/12/09 13:27:50;;;;;;;88.07;33.70;;;;;;;;;;5092418;28;20095;-73
2022/12/09 13:30:41;;;;;;;73.63;29.85;;;;;;;;;;5077439;28;20077;-73
2022/12/09 13:33:33;;;;;;;77.85;31.73;;;;;;;;;;5092977;28;20023;-77
2022/12/09 13:36:21;;;;;;;68.63;29.67;;;;;;;;;;5091930;28;20020;-75
2022/12/09 13:39:11;;;;;;;85.93;33.35;;;;;;;;;;5081741;28;20429;-73
2022/12/09 13:45:04;;;;;;;69.38;31.92;;;;;;;;;;5096705;28;20101;-75
2022/12/09 13:47:52;;;;;;;85.50;35.28;;;;;;;;;;5081296;28;20081;-76
2022/12/09 13:50:38;;;;;;;75.13;32.92;;;;;;;;;;5096108;28;20020;-75
2022/12/09 13:53:38;;;;;;;74.90;32.70;;;;;;;;;;5081878;28;20051;-76
2022/12/09 13:56:29;;;;;;;74.38;33.13;;;;;;;;;;5082497;28;20372;-75
2022/12/09 13:59:15;;;;;;;85.13;35.45;;;;;;;;;;5081014;28;20472;-75
2022/12/09 14:02:12;;;;;;;76.25;32.17;;;;;;;;;;5096005;28;20052;-76
2022/12/09 14:05:04;;;;;;;68.03;31.98;;;;;;;;;;5095591;28;20458;-76
2022/12/09 14:07:56;;;;;;;71.90;31.42;;;;;;;;;;5095351;28;20398;-76
2022/12/09 14:10:47;;;;;;;70.38;30.65;;;;;;;;;;5096319;28;20449;-75
2022/12/09 14:13:34;;;;;;;73.88;32.17;;;;;;;;;;5096168;28;20085;-75
2022/12/09 14:16:40;;;;;;;74.90;32.83;;;;;;;;;;5095310;28;20031;-76
2022/12/09 14:19:30;;;;;;;78.63;34.97;;;;;;;;;;5095762;28;20020;-77
2022/12/09 14:22:19;;;;;;;70.75;31.98;;;;;;;;;;5096118;28;20081;-76
2022/12/09 14:25:23;;;;;;;76.68;34.38;;;;;;;;;;5095555;28;20474;-75
2022/12/09 14:28:08;;;;;;;67.78;31.17;;;;;;;;;;5094618;28;20038;-73
2022/12/09 14:30:57;;;;;;;69.57;30.70;;;;;;;;;;5094200;28;20028;-74
2022/12/09 14:33:46;;;;;;;67.53;28.20;;;;;;;;;;5082129;28;20052;-73
2022/12/09 14:36:32;;;;;;;64.45;27.70;;;;;;;;;;5081469;28;20031;-74
2022/12/09 14:39:24;;;;;;;60.08;25.17;;;;;;;;;;5095082;28;20287;-75
2022/12/09 14:42:18;;;;;;;46.08;21.65;;;;;;;;;;5095955;28;20020;-75
2022/12/09 14:45:23;;;;;;;50.65;23.60;;;;;;;;;;5094963;28;20020;-74
2022/12/09 14:48:10;;;;;;;55.35;22.83;;;;;;;;;;5094842;28;20048;-73
2022/12/09 14:51:16;;;;;;;47.90;23.50;;;;;;;;;;5095015;28;20078;-75
2022/12/09 14:54:27;;;;;;;49.20;22.38;;;;;;;;;;5094378;28;20031;-75
2022/12/09 14:57:21;;;;;;;48.20;21.33;;;;;;;;;;5095130;28;20020;-75
2022/12/09 15:00:23;;;;;;;51.17;21.90;;;;;;;;;;5094536;28;20103;-74
2022/12/09 15:03:20;;;;;;;47.20;20.58;;;;;;;;;;5085827;28;20036;-74
2022/12/09 15:06:10;;;;;;;57.88;21.67;;;;;;;;;;5080572;28;20016;-75
2022/12/09 15:08:56;;;;;;;56.53;21.60;;;;;;;;;;5093826;28;20020;-74
2022/12/09 15:11:42;;;;;;;64.10;23.05;;;;;;;;;;5094521;28;20110;-75
2022/12/09 15:14:28;;;;;;;61.17;23.75;;;;;;;;;;5093680;28;20024;-75
2022/12/09 15:17:16;;;;;;;55.97;24.08;;;;;;;;;;5093683;28;20468;-74
2022/12/09 15:20:03;;;;;;;65.95;28.15;;;;;;;;;;5079296;28;20069;-75
2022/12/09 15:22:50;;;;;;;69.47;29.05;;;;;;;;;;5094254;28;20020;-74
2022/12/09 15:25:41;;;;;;;71.22;28.85;;;;;;;;;;5094638;28;20035;-77
2022/12/09 15:28:27;;;;;;;70.40;30.20;;;;;;;;;;5094305;28;20032;-74
2022/12/09 15:31:17;;;;;;;78.50;31.77;;;;;;;;;;5079155;28;20024;-75
2022/12/09 15:34:10;;;;;;;84.10;30.80;;;;;;;;;;5093950;28;20031;-74
2022/12/09 15:37:01;;;;;;;70.95;30.17;;;;;;;;;;5080283;28;20016;-75
2022/12/09 15:39:50;;;;;;;68.95;27.67;;;;;;;;;;5094565;28;20020;-74
2022/12/09 15:42:38;;;;;;;79.97;27.63;;;;;;;;;;5094111;28;20397;-75
2022/12/09 15:45:25;;;;;;;63.00;23.17;;;;;;;;;;5094488;28;20016;-74
2022/12/09 15:48:15;;;;;;;57.03;24.65;;;;;;;;;;5082443;28;20031;-75
2022/12/09 15:51:03;;;;;;;231.75;96.13;;;;;;;;;;5093547;28;20097;-75
2022/12/09 15:53:54;;;;;;;50.58;23.88;;;;;;;;;;5093802;28;20103;-76
2022/12/09 15:57:00;;;;;;;53.92;24.42;;;;;;;;;;5097158;28;20020;-75
2022/12/09 15:59:49;;;;;;;43.92;20.25;;;;;;;;;;5094434;28;20393;-76
2022/12/09 16:02:37;;;;;;;51.88;21.63;;;;;;;;;;5092762;28;20123;-75
2022/12/09 16:05:23;;;;;;;58.05;23.35;;;;;;;;;;5098105;28;20107;-75
2022/12/09 16:08:09;;;;;;;58.60;24.77;;;;;;;;;;5111132;28;20107;-75
2022/12/09 16:10:57;;;;;;;64.75;25.25;;;;;;;;;;5098090;28;20027;-76
2022/12/09 16:13:58;;;;;;;72.38;27.13;;;;;;;;;;5110122;28;20099;-76
2022/12/09 16:16:57;;;;;;;78.60;28.42;;;;;;;;;;5094516;28;20032;-77
2022/12/09 16:19:42;;;;;;;65.80;27.27;;;;;;;;;;5094434;28;20353;-76
2022/12/09 16:22:31;;;;;;;64.47;26.73;;;;;;;;;;5079954;28;20020;-76
2022/12/09 16:25:21;;;;;;;80.28;27.15;;;;;;;;;;5102606;28;20028;-74
2022/12/09 16:28:17;;;;;;;52.85;22.80;;;;;;;;;;5093891;28;20008;-76
2022/12/09 16:31:15;;;;;;;71.95;34.15;;;;;;;;;;5094922;28;20104;-78
2022/12/09 16:34:00;;;;;;;56.35;24.02;;;;;;;;;;5081615;28;20016;-75
2022/12/09 16:36:53;;;;;;;52.55;22.40;;;;;;;;;;5094076;28;20023;-75
2022/12/09 16:39:39;;;;;;;56.83;27.42;;;;;;;;;;5093533;28;20103;-76
2022/12/09 16:42:29;;;;;;;57.65;24.92;;;;;;;;;;5099555;28;20024;-74
2022/12/09 16:45:21;;;;;;;54.80;26.70;;;;;;;;;;5093183;28;20034;-76
2022/12/09 16:48:07;;;;;;;57.72;27.10;;;;;;;;;;5106482;28;20024;-74
2022/12/09 16:51:08;;;;;;;45.33;21.25;;;;;;;;;;5096413;28;20034;-75
2022/12/09 16:53:54;;;;;;;45.15;20.35;;;;;;;;;;5097180;28;20024;-73
2022/12/09 16:56:40;;;;;;;46.58;21.65;;;;;;;;;;5112679;28;20016;-76
2022/12/09 16:59:26;;;;;;;53.03;26.60;;;;;;;;;;5093917;28;20043;-74
2022/12/09 17:02:14;;;;;;;44.22;21.58;;;;;;;;;;5093429;28;20044;-76
2022/12/09 17:05:00;;;;;;;45.97;22.67;;;;;;;;;;5079371;28;20020;-74
2022/12/09 17:07:46;;;;;;;37.45;19.65;;;;;;;;;;5079154;28;20368;-75
2022/12/09 17:10:31;;;;;;;72.95;47.13;;;;;;;;;;5092568;28;20067;-74